sensor_id;sensor_type;location;lat;lon;timestamp;P1;durP1;ratioP1;P2;durP2;ratioP2
16965;SDS011;8599;47.852;12.070;2023-11-19T00:02:25;4.23;;;1.90;;
16965;SDS011;8599;47.852;12.070;2023-11-19T00:04:52;2.57;;;1.80;;
16965;SDS011;8599;47.852;12.070;2023-11-19T00:07:19;2.37;;;2.20;;
16965;SDS011;8599;47.852;12.070;2023-11-19T00:09:46;4.83;;;3.40;;
16965;SDS011;8599;47.852;12.070;2023-11-19T00:12:14;4.00;;;2.20;;
16965;SDS011;8599;47.852;12.070;2023-11-19T00:14:41;3.07;;;2.43;;
16965;SDS011;8599;47.852;12.070;2023-11-19T00:17:09;3.33;;;2.23;;
16965;SDS011;8599;47.852;12.070;2023-11-19T00:19:36;4.00;;;2.50;;
16965;SDS011;8599;47.852;12.070;2023-11-19T00:22:02;3.33;;;2.57;;
16965;SDS011;8599;47.852;12.070;2023-11-19T00:24:30;2.93;;;2.33;;
16965;SDS011;8599;47.852;12.070;2023-11-19T00:26:56;3.30;;;2.07;;
16965;SDS011;8599;47.852;12.070;2023-11-19T00:29:25;1.97;;;1.80;;
16965;SDS011;8599;47.852;12.070;2023-11-19T00:31:51;2.80;;;2.20;;
16965;SDS011;8599;47.852;12.070;2023-11-19T00:34:18;2.80;;;2.50;;
16965;SDS011;8599;47.852;12.070;2023-11-19T00:36:47;3.43;;;3.13;;
16965;SDS011;8599;47.852;12.070;2023-11-19T00:39:14;2.47;;;2.27;;
16965;SDS011;8599;47.852;12.070;2023-11-19T00:41:41;2.50;;;2.30;;
16965;SDS011;8599;47.852;12.070;2023-11-19T00:44:08;12.47;;;2.23;;
16965;SDS011;8599;47.852;12.070;2023-11-19T00:46:36;3.30;;;2.10;;
16965;SDS011;8599;47.852;12.070;2023-11-19T00:49:03;1.73;;;1.63;;
16965;SDS011;8599;47.852;12.070;2023-11-19T00:51:30;2.10;;;1.80;;
16965;SDS011;8599;47.852;12.070;2023-11-19T00:53:57;2.20;;;2.00;;
16965;SDS011;8599;47.852;12.070;2023-11-19T00:56:25;2.30;;;2.10;;
16965;SDS011;8599;47.852;12.070;2023-11-19T00:58:53;1.87;;;1.77;;
16965;SDS011;8599;47.852;12.070;2023-11-19T01:01:20;1.70;;;1.60;;
16965;SDS011;8599;47.852;12.070;2023-11-19T01:03:49;2.90;;;2.10;;
16965;SDS011;8599;47.852;12.070;2023-11-19T01:06:26;2.57;;;1.90;;
16965;SDS011;8599;47.852;12.070;2023-11-19T01:08:53;3.73;;;2.20;;
16965;SDS011;8599;47.852;12.070;2023-11-19T01:11:21;4.07;;;2.40;;
16965;SDS011;8599;47.852;12.070;2023-11-19T01:13:49;2.37;;;2.17;;
16965;SDS011;8599;47.852;12.070;2023-11-19T01:16:16;3.37;;;2.13;;
16965;SDS011;8599;47.852;12.070;2023-11-19T01:18:44;2.50;;;2.30;;
16965;SDS011;8599;47.852;12.070;2023-11-19T01:21:13;2.47;;;2.17;;
16965;SDS011;8599;47.852;12.070;2023-11-19T01:23:40;3.47;;;2.20;;
16965;SDS011;8599;47.852;12.070;2023-11-19T01:26:08;2.33;;;2.13;;
16965;SDS011;8599;47.852;12.070;2023-11-19T01:28:37;2.90;;;2.30;;
16965;SDS011;8599;47.852;12.070;2023-11-19T01:31:04;3.13;;;2.70;;
16965;SDS011;8599;47.852;12.070;2023-11-19T01:33:33;2.33;;;2.13;;
16965;SDS011;8599;47.852;12.070;2023-11-19T01:36:01;2.50;;;2.30;;
16965;SDS011;8599;47.852;12.070;2023-11-19T01:38:30;4.00;;;2.40;;
16965;SDS011;8599;47.852;12.070;2023-11-19T01:40:57;3.10;;;2.30;;
16965;SDS011;8599;47.852;12.070;2023-11-19T01:43:34;2.53;;;2.30;;
16965;SDS011;8599;47.852;12.070;2023-11-19T01:46:00;3.17;;;2.70;;
16965;SDS011;8599;47.852;12.070;2023-11-19T01:48:27;4.30;;;2.60;;
16965;SDS011;8599;47.852;12.070;2023-11-19T01:50:54;10.77;;;2.73;;
16965;SDS011;8599;47.852;12.070;2023-11-19T01:53:22;2.40;;;2.20;;
16965;SDS011;8599;47.852;12.070;2023-11-19T01:55:51;5.30;;;2.60;;
16965;SDS011;8599;47.852;12.070;2023-11-19T01:58:18;2.87;;;2.43;;
16965;SDS011;8599;47.852;12.070;2023-11-19T02:00:45;4.17;;;2.67;;
16965;SDS011;8599;47.852;12.070;2023-11-19T02:03:13;3.23;;;2.47;;
16965;SDS011;8599;47.852;12.070;2023-11-19T02:05:41;3.63;;;2.53;;
16965;SDS011;8599;47.852;12.070;2023-11-19T02:08:08;3.83;;;2.80;;
16965;SDS011;8599;47.852;12.070;2023-11-19T02:10:35;2.67;;;2.47;;
16965;SDS011;8599;47.852;12.070;2023-11-19T02:13:03;4.87;;;2.80;;
16965;SDS011;8599;47.852;12.070;2023-11-19T02:15:31;2.60;;;2.20;;
16965;SDS011;8599;47.852;12.070;2023-11-19T02:20:47;5.70;;;2.70;;
16965;SDS011;8599;47.852;12.070;2023-11-19T02:23:14;4.40;;;2.50;;
16965;SDS011;8599;47.852;12.070;2023-11-19T02:25:42;2.90;;;2.37;;
16965;SDS011;8599;47.852;12.070;2023-11-19T02:28:16;2.10;;;1.77;;
16965;SDS011;8599;47.852;12.070;2023-11-19T02:30:43;3.33;;;2.30;;
16965;SDS011;8599;47.852;12.070;2023-11-19T02:33:10;2.67;;;2.47;;
16965;SDS011;8599;47.852;12.070;2023-11-19T02:35:37;2.97;;;2.20;;
16965;SDS011;8599;47.852;12.070;2023-11-19T02:38:05;2.63;;;2.30;;
16965;SDS011;8599;47.852;12.070;2023-11-19T02:40:33;3.60;;;2.30;;
16965;SDS011;8599;47.852;12.070;2023-11-19T02:43:00;2.40;;;1.93;;
16965;SDS011;8599;47.852;12.070;2023-11-19T02:45:31;2.10;;;1.90;;
16965;SDS011;8599;47.852;12.070;2023-11-19T02:47:58;3.00;;;2.20;;
16965;SDS011;8599;47.852;12.070;2023-11-19T02:50:26;2.37;;;1.90;;
16965;SDS011;8599;47.852;12.070;2023-11-19T02:52:54;3.97;;;2.33;;
16965;SDS011;8599;47.852;12.070;2023-11-19T02:55:22;2.37;;;1.73;;
16965;SDS011;8599;47.852;12.070;2023-11-19T02:57:49;3.30;;;1.97;;
16965;SDS011;8599;47.852;12.070;2023-11-19T03:00:18;2.43;;;1.97;;
16965;SDS011;8599;47.852;12.070;2023-11-19T03:02:50;1.83;;;1.63;;
16965;SDS011;8599;47.852;12.070;2023-11-19T03:05:24;1.83;;;1.73;;
16965;SDS011;8599;47.852;12.070;2023-11-19T03:07:51;2.03;;;1.40;;
16965;SDS011;8599;47.852;12.070;2023-11-19T03:10:18;2.97;;;1.33;;
16965;SDS011;8599;47.852;12.070;2023-11-19T03:12:45;1.93;;;1.80;;
16965;SDS011;8599;47.852;12.070;2023-11-19T03:15:12;1.60;;;1.47;;
16965;SDS011;8599;47.852;12.070;2023-11-19T03:17:39;4.17;;;1.77;;
16965;SDS011;8599;47.852;12.070;2023-11-19T03:20:09;1.60;;;1.50;;
16965;SDS011;8599;47.852;12.070;2023-11-19T03:22:40;2.20;;;1.80;;
16965;SDS011;8599;47.852;12.070;2023-11-19T03:25:07;1.60;;;1.50;;
16965;SDS011;8599;47.852;12.070;2023-11-19T03:27:34;1.33;;;1.23;;
16965;SDS011;8599;47.852;12.070;2023-11-19T03:30:01;1.50;;;1.40;;
16965;SDS011;8599;47.852;12.070;2023-11-19T03:32:30;2.30;;;1.70;;
16965;SDS011;8599;47.852;12.070;2023-11-19T03:34:57;1.23;;;1.10;;
16965;SDS011;8599;47.852;12.070;2023-11-19T03:37:25;2.60;;;1.10;;
16965;SDS011;8599;47.852;12.070;2023-11-19T03:39:53;1.67;;;1.43;;
16965;SDS011;8599;47.852;12.070;2023-11-19T03:42:20;1.73;;;1.13;;
16965;SDS011;8599;47.852;12.070;2023-11-19T03:44:47;1.50;;;1.10;;
16965;SDS011;8599;47.852;12.070;2023-11-19T03:47:15;1.17;;;1.07;;
16965;SDS011;8599;47.852;12.070;2023-11-19T03:49:42;1.03;;;1.00;;
16965;SDS011;8599;47.852;12.070;2023-11-19T03:52:13;1.10;;;1.00;;
16965;SDS011;8599;47.852;12.070;2023-11-19T03:54:41;1.40;;;1.30;;
16965;SDS011;8599;47.852;12.070;2023-11-19T03:57:08;1.20;;;1.10;;
16965;SDS011;8599;47.852;12.070;2023-11-19T03:59:35;1.70;;;1.10;;
16965;SDS011;8599;47.852;12.070;2023-11-19T04:02:02;1.00;;;1.00;;
16965;SDS011;8599;47.852;12.070;2023-11-19T04:04:29;1.00;;;1.00;;
16965;SDS011;8599;47.852;12.070;2023-11-19T04:06:56;2.00;;;1.20;;
16965;SDS011;8599;47.852;12.070;2023-11-19T04:09:23;2.10;;;1.10;;
16965;SDS011;8599;47.852;12.070;2023-11-19T04:11:51;1.50;;;1.40;;
16965;SDS011;8599;47.852;12.070;2023-11-19T04:14:18;3.53;;;1.70;;
16965;SDS011;8599;47.852;12.070;2023-11-19T04:16:45;2.43;;;1.27;;
16965;SDS011;8599;47.852;12.070;2023-11-19T04:19:12;2.20;;;1.50;;
16965;SDS011;8599;47.852;12.070;2023-11-19T04:21:39;1.83;;;1.13;;
16965;SDS011;8599;47.852;12.070;2023-11-19T04:24:07;1.20;;;1.10;;
16965;SDS011;8599;47.852;12.070;2023-11-19T04:26:39;1.30;;;1.20;;
16965;SDS011;8599;47.852;12.070;2023-11-19T04:29:08;1.30;;;1.20;;
16965;SDS011;8599;47.852;12.070;2023-11-19T04:31:36;1.10;;;1.10;;
16965;SDS011;8599;47.852;12.070;2023-11-19T04:34:03;1.33;;;1.00;;
16965;SDS011;8599;47.852;12.070;2023-11-19T04:36:31;1.60;;;1.30;;
16965;SDS011;8599;47.852;12.070;2023-11-19T04:38:58;1.90;;;1.13;;
16965;SDS011;8599;47.852;12.070;2023-11-19T04:41:25;1.50;;;1.13;;
16965;SDS011;8599;47.852;12.070;2023-11-19T04:43:52;1.37;;;1.23;;
16965;SDS011;8599;47.852;12.070;2023-11-19T04:46:20;1.37;;;1.27;;
16965;SDS011;8599;47.852;12.070;2023-11-19T04:48:48;5.20;;;1.37;;
16965;SDS011;8599;47.852;12.070;2023-11-19T04:51:15;1.07;;;1.07;;
16965;SDS011;8599;47.852;12.070;2023-11-19T04:53:42;1.33;;;1.23;;
16965;SDS011;8599;47.852;12.070;2023-11-19T04:56:10;1.90;;;1.20;;
16965;SDS011;8599;47.852;12.070;2023-11-19T04:58:38;1.40;;;1.23;;
16965;SDS011;8599;47.852;12.070;2023-11-19T05:01:05;1.83;;;1.23;;
16965;SDS011;8599;47.852;12.070;2023-11-19T05:03:34;1.43;;;1.33;;
16965;SDS011;8599;47.852;12.070;2023-11-19T05:06:01;1.30;;;1.20;;
16965;SDS011;8599;47.852;12.070;2023-11-19T05:08:28;1.80;;;1.50;;
16965;SDS011;8599;47.852;12.070;2023-11-19T05:10:55;1.67;;;1.37;;
16965;SDS011;8599;47.852;12.070;2023-11-19T05:13:22;1.63;;;1.13;;
16965;SDS011;8599;47.852;12.070;2023-11-19T05:15:49;1.50;;;1.40;;
16965;SDS011;8599;47.852;12.070;2023-11-19T05:18:16;1.30;;;1.20;;
16965;SDS011;8599;47.852;12.070;2023-11-19T05:20:44;1.97;;;1.30;;
16965;SDS011;8599;47.852;12.070;2023-11-19T05:23:12;2.70;;;1.23;;
16965;SDS011;8599;47.852;12.070;2023-11-19T05:25:38;1.13;;;1.03;;
16965;SDS011;8599;47.852;12.070;2023-11-19T05:28:05;1.37;;;1.27;;
16965;SDS011;8599;47.852;12.070;2023-11-19T05:30:33;1.20;;;1.10;;
16965;SDS011;8599;47.852;12.070;2023-11-19T05:33:00;1.13;;;1.13;;
16965;SDS011;8599;47.852;12.070;2023-11-19T05:35:27;1.67;;;1.40;;
16965;SDS011;8599;47.852;12.070;2023-11-19T05:37:55;4.53;;;2.47;;
16965;SDS011;8599;47.852;12.070;2023-11-19T05:40:21;9.33;;;5.80;;
16965;SDS011;8599;47.852;12.070;2023-11-19T05:42:48;21.93;;;13.23;;
16965;SDS011;8599;47.852;12.070;2023-11-19T05:45:15;11.73;;;6.43;;
16965;SDS011;8599;47.852;12.070;2023-11-19T05:47:42;5.60;;;2.37;;
16965;SDS011;8599;47.852;12.070;2023-11-19T05:50:09;6.63;;;4.47;;
16965;SDS011;8599;47.852;12.070;2023-11-19T05:52:36;3.30;;;2.40;;
16965;SDS011;8599;47.852;12.070;2023-11-19T05:55:05;5.33;;;3.23;;
16965;SDS011;8599;47.852;12.070;2023-11-19T05:57:34;10.50;;;4.87;;
16965;SDS011;8599;47.852;12.070;2023-11-19T06:00:01;22.73;;;10.70;;
16965;SDS011;8599;47.852;12.070;2023-11-19T06:02:32;17.27;;;9.00;;
16965;SDS011;8599;47.852;12.070;2023-11-19T06:04:59;4.50;;;3.30;;
16965;SDS011;8599;47.852;12.070;2023-11-19T06:07:26;21.17;;;10.20;;
16965;SDS011;8599;47.852;12.070;2023-11-19T06:09:53;4.03;;;3.00;;
16965;SDS011;8599;47.852;12.070;2023-11-19T06:12:21;11.10;;;4.83;;
16965;SDS011;8599;47.852;12.070;2023-11-19T06:14:48;5.17;;;3.10;;
16965;SDS011;8599;47.852;12.070;2023-11-19T06:17:15;3.10;;;2.50;;
16965;SDS011;8599;47.852;12.070;2023-11-19T06:19:42;17.07;;;8.87;;
16965;SDS011;8599;47.852;12.070;2023-11-19T06:22:10;15.77;;;8.97;;
16965;SDS011;8599;47.852;12.070;2023-11-19T06:24:37;3.40;;;3.00;;
16965;SDS011;8599;47.852;12.070;2023-11-19T06:27:04;2.37;;;1.90;;
16965;SDS011;8599;47.852;12.070;2023-11-19T06:29:32;2.63;;;1.53;;
16965;SDS011;8599;47.852;12.070;2023-11-19T06:31:58;2.23;;;2.03;;
16965;SDS011;8599;47.852;12.070;2023-11-19T06:34:25;1.63;;;1.53;;
16965;SDS011;8599;47.852;12.070;2023-11-19T06:36:52;3.23;;;2.00;;
16965;SDS011;8599;47.852;12.070;2023-11-19T06:39:19;3.47;;;1.70;;
16965;SDS011;8599;47.852;12.070;2023-11-19T06:41:46;3.50;;;1.90;;
16965;SDS011;8599;47.852;12.070;2023-11-19T06:44:13;7.23;;;5.07;;
16965;SDS011;8599;47.852;12.070;2023-11-19T06:46:42;1.80;;;1.70;;
16965;SDS011;8599;47.852;12.070;2023-11-19T06:49:08;4.70;;;1.67;;
16965;SDS011;8599;47.852;12.070;2023-11-19T06:51:36;1.80;;;1.70;;
16965;SDS011;8599;47.852;12.070;2023-11-19T06:54:07;2.17;;;1.80;;
16965;SDS011;8599;47.852;12.070;2023-11-19T06:56:34;4.30;;;3.23;;
16965;SDS011;8599;47.852;12.070;2023-11-19T06:59:02;6.13;;;3.10;;
16965;SDS011;8599;47.852;12.070;2023-11-19T07:01:30;4.10;;;3.70;;
16965;SDS011;8599;47.852;12.070;2023-11-19T07:04:02;3.07;;;2.60;;
16965;SDS011;8599;47.852;12.070;2023-11-19T07:06:34;2.10;;;2.00;;
16965;SDS011;8599;47.852;12.070;2023-11-19T07:09:01;6.57;;;2.07;;
16965;SDS011;8599;47.852;12.070;2023-11-19T07:11:34;4.40;;;2.10;;
16965;SDS011;8599;47.852;12.070;2023-11-19T07:14:01;2.83;;;2.20;;
16965;SDS011;8599;47.852;12.070;2023-11-19T07:16:29;3.17;;;2.40;;
16965;SDS011;8599;47.852;12.070;2023-11-19T07:18:55;3.80;;;2.40;;
16965;SDS011;8599;47.852;12.070;2023-11-19T07:21:25;3.50;;;1.97;;
16965;SDS011;8599;47.852;12.070;2023-11-19T07:23:53;1.70;;;1.60;;
16965;SDS011;8599;47.852;12.070;2023-11-19T07:26:20;2.03;;;1.83;;
16965;SDS011;8599;47.852;12.070;2023-11-19T07:28:47;5.57;;;2.50;;
16965;SDS011;8599;47.852;12.070;2023-11-19T07:31:14;3.53;;;2.37;;
16965;SDS011;8599;47.852;12.070;2023-11-19T07:33:41;2.23;;;2.13;;
16965;SDS011;8599;47.852;12.070;2023-11-19T07:36:09;2.43;;;2.23;;
16965;SDS011;8599;47.852;12.070;2023-11-19T07:38:37;1.90;;;1.80;;
16965;SDS011;8599;47.852;12.070;2023-11-19T07:41:04;2.90;;;1.70;;
16965;SDS011;8599;47.852;12.070;2023-11-19T07:43:31;1.97;;;1.80;;
16965;SDS011;8599;47.852;12.070;2023-11-19T07:45:58;3.57;;;3.10;;
16965;SDS011;8599;47.852;12.070;2023-11-19T07:48:25;4.93;;;2.00;;
16965;SDS011;8599;47.852;12.070;2023-11-19T07:50:52;1.73;;;1.63;;
16965;SDS011;8599;47.852;12.070;2023-11-19T07:53:19;2.00;;;1.90;;
16965;SDS011;8599;47.852;12.070;2023-11-19T07:55:48;2.67;;;1.73;;
16965;SDS011;8599;47.852;12.070;2023-11-19T07:58:14;2.87;;;2.20;;
16965;SDS011;8599;47.852;12.070;2023-11-19T08:00:41;2.80;;;2.40;;
16965;SDS011;8599;47.852;12.070;2023-11-19T08:03:08;2.30;;;2.10;;
16965;SDS011;8599;47.852;12.070;2023-11-19T08:05:35;3.97;;;2.90;;
16965;SDS011;8599;47.852;12.070;2023-11-19T08:08:02;4.60;;;3.17;;
16965;SDS011;8599;47.852;12.070;2023-11-19T08:10:30;6.93;;;2.63;;
16965;SDS011;8599;47.852;12.070;2023-11-19T08:12:59;3.27;;;2.97;;
16965;SDS011;8599;47.852;12.070;2023-11-19T08:15:26;4.07;;;2.37;;
16965;SDS011;8599;47.852;12.070;2023-11-19T08:17:53;7.17;;;3.77;;
16965;SDS011;8599;47.852;12.070;2023-11-19T08:20:20;5.17;;;3.20;;
16965;SDS011;8599;47.852;12.070;2023-11-19T08:22:46;2.40;;;2.20;;
16965;SDS011;8599;47.852;12.070;2023-11-19T08:25:13;26.20;;;10.37;;
16965;SDS011;8599;47.852;12.070;2023-11-19T08:27:40;24.07;;;11.13;;
16965;SDS011;8599;47.852;12.070;2023-11-19T08:30:10;5.93;;;3.53;;
16965;SDS011;8599;47.852;12.070;2023-11-19T08:32:37;3.60;;;2.70;;
16965;SDS011;8599;47.852;12.070;2023-11-19T08:35:04;3.97;;;2.67;;
16965;SDS011;8599;47.852;12.070;2023-11-19T08:37:31;4.33;;;3.40;;
16965;SDS011;8599;47.852;12.070;2023-11-19T08:39:58;4.37;;;3.23;;
16965;SDS011;8599;47.852;12.070;2023-11-19T08:42:26;4.80;;;3.17;;
16965;SDS011;8599;47.852;12.070;2023-11-19T08:44:52;7.33;;;2.90;;
16965;SDS011;8599;47.852;12.070;2023-11-19T08:47:21;2.60;;;2.20;;
16965;SDS011;8599;47.852;12.070;2023-11-19T08:49:50;8.93;;;5.40;;
16965;SDS011;8599;47.852;12.070;2023-11-19T08:52:17;6.20;;;3.80;;
16965;SDS011;8599;47.852;12.070;2023-11-19T08:54:44;7.57;;;4.73;;
16965;SDS011;8599;47.852;12.070;2023-11-19T08:57:11;4.73;;;3.00;;
16965;SDS011;8599;47.852;12.070;2023-11-19T08:59:38;2.33;;;1.70;;
16965;SDS011;8599;47.852;12.070;2023-11-19T09:02:05;9.53;;;3.10;;
16965;SDS011;8599;47.852;12.070;2023-11-19T09:04:33;3.80;;;3.20;;
16965;SDS011;8599;47.852;12.070;2023-11-19T09:07:01;7.33;;;3.37;;
16965;SDS011;8599;47.852;12.070;2023-11-19T09:09:28;5.20;;;2.80;;
16965;SDS011;8599;47.852;12.070;2023-11-19T09:11:55;3.77;;;2.30;;
16965;SDS011;8599;47.852;12.070;2023-11-19T09:14:21;5.13;;;3.00;;
16965;SDS011;8599;47.852;12.070;2023-11-19T09:16:50;4.93;;;3.00;;
16965;SDS011;8599;47.852;12.070;2023-11-19T09:19:17;2.33;;;1.80;;
16965;SDS011;8599;47.852;12.070;2023-11-19T09:21:46;13.60;;;4.50;;
16965;SDS011;8599;47.852;12.070;2023-11-19T09:24:14;5.93;;;3.57;;
16965;SDS011;8599;47.852;12.070;2023-11-19T09:26:41;4.00;;;2.17;;
16965;SDS011;8599;47.852;12.070;2023-11-19T09:29:07;12.53;;;7.23;;
16965;SDS011;8599;47.852;12.070;2023-11-19T09:31:34;6.00;;;3.80;;
16965;SDS011;8599;47.852;12.070;2023-11-19T09:34:03;12.10;;;6.60;;
16965;SDS011;8599;47.852;12.070;2023-11-19T09:36:30;4.87;;;3.33;;
16965;SDS011;8599;47.852;12.070;2023-11-19T09:38:59;8.20;;;5.43;;
16965;SDS011;8599;47.852;12.070;2023-11-19T09:41:27;12.53;;;4.47;;
16965;SDS011;8599;47.852;12.070;2023-11-19T09:43:54;3.63;;;2.27;;
16965;SDS011;8599;47.852;12.070;2023-11-19T09:46:21;2.23;;;2.03;;
16965;SDS011;8599;47.852;12.070;2023-11-19T09:48:49;5.97;;;3.23;;
16965;SDS011;8599;47.852;12.070;2023-11-19T09:51:19;4.33;;;2.20;;
16965;SDS011;8599;47.852;12.070;2023-11-19T09:53:46;6.57;;;3.40;;
16965;SDS011;8599;47.852;12.070;2023-11-19T09:56:15;3.50;;;3.20;;
16965;SDS011;8599;47.852;12.070;2023-11-19T09:58:42;9.43;;;6.20;;
16965;SDS011;8599;47.852;12.070;2023-11-19T10:01:09;10.27;;;3.30;;
16965;SDS011;8599;47.852;12.070;2023-11-19T10:03:37;3.27;;;2.80;;
16965;SDS011;8599;47.852;12.070;2023-11-19T10:06:08;4.63;;;2.80;;
16965;SDS011;8599;47.852;12.070;2023-11-19T10:08:36;4.83;;;1.70;;
16965;SDS011;8599;47.852;12.070;2023-11-19T10:11:05;6.77;;;4.87;;
16965;SDS011;8599;47.852;12.070;2023-11-19T10:13:33;4.80;;;3.57;;
16965;SDS011;8599;47.852;12.070;2023-11-19T10:16:03;4.83;;;3.53;;
16965;SDS011;8599;47.852;12.070;2023-11-19T10:18:33;7.23;;;4.53;;
16965;SDS011;8599;47.852;12.070;2023-11-19T10:21:03;2.67;;;2.00;;
16965;SDS011;8599;47.852;12.070;2023-11-19T10:23:31;2.93;;;1.80;;
16965;SDS011;8599;47.852;12.070;2023-11-19T10:26:02;7.87;;;3.43;;
16965;SDS011;8599;47.852;12.070;2023-11-19T10:28:39;5.20;;;3.30;;
16965;SDS011;8599;47.852;12.070;2023-11-19T10:31:08;4.20;;;3.37;;
16965;SDS011;8599;47.852;12.070;2023-11-19T10:33:35;3.20;;;2.33;;
16965;SDS011;8599;47.852;12.070;2023-11-19T10:36:01;6.70;;;4.50;;
16965;SDS011;8599;47.852;12.070;2023-11-19T10:38:28;3.60;;;2.90;;
16965;SDS011;8599;47.852;12.070;2023-11-19T10:40:56;8.20;;;3.60;;
16965;SDS011;8599;47.852;12.070;2023-11-19T10:43:24;7.17;;;3.97;;
16965;SDS011;8599;47.852;12.070;2023-11-19T10:45:52;4.93;;;2.80;;
16965;SDS011;8599;47.852;12.070;2023-11-19T10:48:19;11.20;;;6.27;;
16965;SDS011;8599;47.852;12.070;2023-11-19T10:50:46;5.93;;;3.53;;
16965;SDS011;8599;47.852;12.070;2023-11-19T10:53:19;20.27;;;9.07;;
16965;SDS011;8599;47.852;12.070;2023-11-19T10:55:47;11.47;;;6.70;;
16965;SDS011;8599;47.852;12.070;2023-11-19T10:58:15;11.33;;;3.50;;
16965;SDS011;8599;47.852;12.070;2023-11-19T11:00:43;4.73;;;3.60;;
16965;SDS011;8599;47.852;12.070;2023-11-19T11:03:14;6.97;;;4.77;;
16965;SDS011;8599;47.852;12.070;2023-11-19T11:05:43;3.17;;;2.00;;
16965;SDS011;8599;47.852;12.070;2023-11-19T11:08:13;4.60;;;3.00;;
16965;SDS011;8599;47.852;12.070;2023-11-19T11:10:42;1.50;;;1.33;;
16965;SDS011;8599;47.852;12.070;2023-11-19T11:13:10;2.20;;;1.50;;
16965;SDS011;8599;47.852;12.070;2023-11-19T11:15:39;1.30;;;1.20;;
16965;SDS011;8599;47.852;12.070;2023-11-19T11:18:08;2.50;;;1.50;;
16965;SDS011;8599;47.852;12.070;2023-11-19T11:20:36;0.57;;;0.57;;
16965;SDS011;8599;47.852;12.070;2023-11-19T11:23:10;1.00;;;1.00;;
16965;SDS011;8599;47.852;12.070;2023-11-19T11:25:59;1.00;;;0.80;;
16965;SDS011;8599;47.852;12.070;2023-11-19T11:28:37;0.30;;;0.30;;
16965;SDS011;8599;47.852;12.070;2023-11-19T11:31:13;1.30;;;0.60;;
16965;SDS011;8599;47.852;12.070;2023-11-19T11:33:59;0.40;;;0.40;;
16965;SDS011;8599;47.852;12.070;2023-11-19T11:36:38;0.63;;;0.50;;
16965;SDS011;8599;47.852;12.070;2023-11-19T11:39:12;0.30;;;0.30;;
16965;SDS011;8599;47.852;12.070;2023-11-19T11:41:40;0.57;;;0.50;;
16965;SDS011;8599;47.852;12.070;2023-11-19T11:44:07;2.00;;;0.67;;
16965;SDS011;8599;47.852;12.070;2023-11-19T11:49:26;0.70;;;0.40;;
16965;SDS011;8599;47.852;12.070;2023-11-19T11:51:59;0.40;;;0.40;;
16965;SDS011;8599;47.852;12.070;2023-11-19T11:54:28;0.47;;;0.47;;
16965;SDS011;8599;47.852;12.070;2023-11-19T11:57:02;0.57;;;0.57;;
16965;SDS011;8599;47.852;12.070;2023-11-19T11:59:37;0.53;;;0.40;;
16965;SDS011;8599;47.852;12.070;2023-11-19T12:02:09;0.37;;;0.37;;
16965;SDS011;8599;47.852;12.070;2023-11-19T12:04:38;0.40;;;0.33;;
16965;SDS011;8599;47.852;12.070;2023-11-19T12:07:08;2.73;;;0.60;;
16965;SDS011;8599;47.852;12.070;2023-11-19T12:09:40;0.40;;;0.40;;
16965;SDS011;8599;47.852;12.070;2023-11-19T12:12:07;0.40;;;0.40;;
16965;SDS011;8599;47.852;12.070;2023-11-19T12:15:02;0.30;;;0.20;;
16965;SDS011;8599;47.852;12.070;2023-11-19T12:17:37;3.23;;;0.40;;
16965;SDS011;8599;47.852;12.070;2023-11-19T12:20:09;0.20;;;0.20;;
16965;SDS011;8599;47.852;12.070;2023-11-19T12:22:38;0.57;;;0.53;;
16965;SDS011;8599;47.852;12.070;2023-11-19T12:25:06;0.60;;;0.60;;
16965;SDS011;8599;47.852;12.070;2023-11-19T12:27:34;0.73;;;0.30;;
16965;SDS011;8599;47.852;12.070;2023-11-19T12:30:01;0.67;;;0.57;;
16965;SDS011;8599;47.852;12.070;2023-11-19T12:32:37;0.30;;;0.30;;
16965;SDS011;8599;47.852;12.070;2023-11-19T12:35:05;0.30;;;0.30;;
16965;SDS011;8599;47.852;12.070;2023-11-19T12:37:32;0.50;;;0.50;;
16965;SDS011;8599;47.852;12.070;2023-11-19T12:40:01;0.43;;;0.43;;
16965;SDS011;8599;47.852;12.070;2023-11-19T12:42:36;0.40;;;0.40;;
16965;SDS011;8599;47.852;12.070;2023-11-19T12:45:04;1.87;;;0.37;;
16965;SDS011;8599;47.852;12.070;2023-11-19T12:47:31;0.40;;;0.40;;
16965;SDS011;8599;47.852;12.070;2023-11-19T12:49:58;0.40;;;0.40;;
16965;SDS011;8599;47.852;12.070;2023-11-19T12:52:25;0.73;;;0.57;;
16965;SDS011;8599;47.852;12.070;2023-11-19T12:54:52;1.03;;;0.60;;
16965;SDS011;8599;47.852;12.070;2023-11-19T12:57:21;0.60;;;0.60;;
16965;SDS011;8599;47.852;12.070;2023-11-19T13:00:01;1.33;;;0.50;;
16965;SDS011;8599;47.852;12.070;2023-11-19T13:02:44;0.40;;;0.40;;
16965;SDS011;8599;47.852;12.070;2023-11-19T13:05:22;1.57;;;0.50;;
16965;SDS011;8599;47.852;12.070;2023-11-19T13:07:51;6.00;;;0.60;;
16965;SDS011;8599;47.852;12.070;2023-11-19T13:10:23;0.97;;;0.50;;
16965;SDS011;8599;47.852;12.070;2023-11-19T13:13:00;0.30;;;0.30;;
16965;SDS011;8599;47.852;12.070;2023-11-19T13:15:31;1.17;;;0.30;;
16965;SDS011;8599;47.852;12.070;2023-11-19T13:17:58;1.03;;;0.40;;
16965;SDS011;8599;47.852;12.070;2023-11-19T13:20:25;0.50;;;0.50;;
16965;SDS011;8599;47.852;12.070;2023-11-19T13:22:56;2.27;;;0.87;;
16965;SDS011;8599;47.852;12.070;2023-11-19T13:25:24;1.47;;;0.80;;
16965;SDS011;8599;47.852;12.070;2023-11-19T13:27:51;0.70;;;0.60;;
16965;SDS011;8599;47.852;12.070;2023-11-19T13:30:19;0.20;;;0.20;;
16965;SDS011;8599;47.852;12.070;2023-11-19T13:32:47;0.37;;;0.37;;
16965;SDS011;8599;47.852;12.070;2023-11-19T13:35:14;0.40;;;0.40;;
16965;SDS011;8599;47.852;12.070;2023-11-19T13:37:42;1.07;;;0.50;;
16965;SDS011;8599;47.852;12.070;2023-11-19T13:40:09;0.90;;;0.90;;
16965;SDS011;8599;47.852;12.070;2023-11-19T13:42:39;1.07;;;0.93;;
16965;SDS011;8599;47.852;12.070;2023-11-19T13:45:07;0.60;;;0.60;;
16965;SDS011;8599;47.852;12.070;2023-11-19T13:47:38;1.50;;;0.50;;
16965;SDS011;8599;47.852;12.070;2023-11-19T13:50:07;0.77;;;0.77;;
16965;SDS011;8599;47.852;12.070;2023-11-19T13:52:35;0.63;;;0.60;;
16965;SDS011;8599;47.852;12.070;2023-11-19T13:55:03;0.60;;;0.60;;
16965;SDS011;8599;47.852;12.070;2023-11-19T13:57:31;0.50;;;0.50;;
16965;SDS011;8599;47.852;12.070;2023-11-19T13:59:59;0.60;;;0.60;;
16965;SDS011;8599;47.852;12.070;2023-11-19T14:02:26;0.40;;;0.40;;
16965;SDS011;8599;47.852;12.070;2023-11-19T14:04:54;0.80;;;0.80;;
16965;SDS011;8599;47.852;12.070;2023-11-19T14:07:21;0.50;;;0.50;;
16965;SDS011;8599;47.852;12.070;2023-11-19T14:09:48;1.43;;;0.67;;
16965;SDS011;8599;47.852;12.070;2023-11-19T14:12:15;0.87;;;0.40;;
16965;SDS011;8599;47.852;12.070;2023-11-19T14:14:42;1.90;;;0.70;;
16965;SDS011;8599;47.852;12.070;2023-11-19T14:17:09;1.53;;;1.00;;
16965;SDS011;8599;47.852;12.070;2023-11-19T14:19:36;2.20;;;1.27;;
16965;SDS011;8599;47.852;12.070;2023-11-19T14:22:05;0.50;;;0.50;;
16965;SDS011;8599;47.852;12.070;2023-11-19T14:24:33;0.70;;;0.50;;
16965;SDS011;8599;47.852;12.070;2023-11-19T14:27:00;0.40;;;0.40;;
16965;SDS011;8599;47.852;12.070;2023-11-19T14:29:27;0.47;;;0.47;;
16965;SDS011;8599;47.852;12.070;2023-11-19T14:31:54;0.53;;;0.53;;
16965;SDS011;8599;47.852;12.070;2023-11-19T14:34:21;1.10;;;0.60;;
16965;SDS011;8599;47.852;12.070;2023-11-19T14:36:49;3.93;;;1.50;;
16965;SDS011;8599;47.852;12.070;2023-11-19T14:39:18;0.40;;;0.40;;
16965;SDS011;8599;47.852;12.070;2023-11-19T14:41:44;0.50;;;0.50;;
16965;SDS011;8599;47.852;12.070;2023-11-19T14:44:11;9.87;;;4.80;;
16965;SDS011;8599;47.852;12.070;2023-11-19T14:46:38;1.73;;;1.37;;
16965;SDS011;8599;47.852;12.070;2023-11-19T14:49:05;8.30;;;4.90;;
16965;SDS011;8599;47.852;12.070;2023-11-19T14:51:35;0.97;;;0.83;;
16965;SDS011;8599;47.852;12.070;2023-11-19T14:54:02;2.83;;;1.70;;
16965;SDS011;8599;47.852;12.070;2023-11-19T14:56:30;1.77;;;1.13;;
16965;SDS011;8599;47.852;12.070;2023-11-19T14:58:57;0.80;;;0.60;;